Time;durP1;ratioP1;P1;durP2;ratioP2;P2;SDS_P1;SDS_P2;PMS_P1;PMS_P2;Temp;Humidity;BMP_temperature;BMP_pressure;BME280_temperature;BME280_humidity;BME280_pressure;Samples;Min_cycle;Max_cycle;Signal;HPM_P1;HPM_P2
2021/09/06 00:00:23;;;;;;;;;;;;;;;;;;2085522;28;2109;-72
2021/09/06 00:01:25;;;;;;;;;;;;;;;;;;2085264;28;989;-72
2021/09/06 00:02:25;;;;;;;;;;;;;;;;;;2085912;28;2190;-72
2021/09/06 00:03:26;;;;;;;;;;;;;;;;;;2084303;28;3760;-72
2021/09/06 00:04:26;;;;;;;;;;;;;;;;;;2086097;28;3151;-72
2021/09/06 00:05:27;;;;;;;;;;;;;;;;;;2085459;28;3519;-72
2021/09/06 00:06:27;;;;;;;;;;;;;;;;;;2084983;28;1498;-72
2021/09/06 00:07:28;;;;;;;;;;;;;;;;;;2086028;28;2067;-72
2021/09/06 00:08:28;;;;;;;;;;;;;;;;;;2086460;28;1914;-72
2021/09/06 00:09:29;;;;;;;;;;;;;;;;;;2085593;28;1594;-72
2021/09/06 00:10:29;;;;;;;;;;;;;;;;;;2086701;28;1093;-72
2021/09/06 00:11:31;;;;;;;;;;;;;;;;;;2085078;28;3208;-72
2021/09/06 00:12:31;;;;;;;;;;;;;;;;;;2085133;28;2535;-72
2021/09/06 00:13:32;;;;;;;;;;;;;;;;;;2085516;28;1088;-72
2021/09/06 00:14:32;;;;;;;;;;;;;;;;;;2085152;28;3752;-72
2021/09/06 00:15:33;;;;;;;;;;;;;;;;;;2085185;28;3904;-72
2021/09/06 00:16:33;;;;;;;;;;;;;;;;;;2084838;28;2291;-72
2021/09/06 00:17:34;;;;;;;;;;;;;;;;;;2085754;28;3209;-72
2021/09/06 00:18:35;;;;;;;;;;;;;;;;;;2086490;28;2048;-72
2021/09/06 00:19:35;;;;;;;;;;;;;;;;;;2085170;28;3971;-72
2021/09/06 00:20:36;;;;;;;;;;;;;;;;;;2085650;28;3439;-72
2021/09/06 00:21:37;;;;;;;;;;;;;;;;;;2084015;28;4094;-72
2021/09/06 00:22:38;;;;;;;;;;;;;;;;;;2085961;28;2332;-72
2021/09/06 00:23:39;;;;;;;;;;;;;;;;;;2083674;28;3936;-72
2021/09/06 00:24:39;;;;;;;;;;;;;;;;;;2085692;28;3151;-72
2021/09/06 00:25:40;;;;;;;;;;;;;;;;;;2084315;28;3644;-72
2021/09/06 00:26:40;;;;;;;;;;;;;;;;;;2084720;28;3909;-72
2021/09/06 00:27:41;;;;;;;;;;;;;;;;;;2086946;28;3948;-72
2021/09/06 00:28:43;;;;;;;;;;;;;;;;;;2086264;28;3118;-72
2021/09/06 00:29:43;;;;;;;;;;;;;;;;;;2086732;28;1842;-72
2021/09/06 00:30:44;;;;;;;;;;;;;;;;;;2088059;28;1616;-72
2021/09/06 00:31:44;;;;;;;;;;;;;;;;;;2087100;28;1017;-72
2021/09/06 00:32:45;;;;;;;;;;;;;;;;;;2085949;28;4139;-72
2021/09/06 00:33:46;;;;;;;;;;;;;;;;;;2086865;28;3665;-72
2021/09/06 00:34:49;;;;;;;;;;;;;;;;;;2088174;28;2381;-72
2021/09/06 00:35:50;;;;;;;;;;;;;;;;;;2086950;28;3965;-72
2021/09/06 00:36:50;;;;;;;;;;;;;;;;;;2086574;28;2730;-72
2021/09/06 00:37:51;;;;;;;;;;;;;;;;;;2087651;28;2422;-72
2021/09/06 00:38:52;;;;;;;;;;;;;;;;;;2087992;28;2263;-72
2021/09/06 00:39:53;;;;;;;;;;;;;;;;;;2088784;28;1037;-72
2021/09/06 00:40:54;;;;;;;;;;;;;;;;;;2087954;28;1873;-72
2021/09/06 00:41:54;;;;;;;;;;;;;;;;;;2086946;28;4242;-72
2021/09/06 00:42:55;;;;;;;;;;;;;;;;;;2085307;28;4079;-72
2021/09/06 00:43:55;;;;;;;;;;;;;;;;;;2086352;28;3648;-72
2021/09/06 00:44:56;;;;;;;;;;;;;;;;;;2082536;28;2310;-72
2021/09/06 00:45:57;;;;;;;;;;;;;;;;;;2081677;28;3485;-72
2021/09/06 00:47:00;;;;;;;;;;;;;;;;;;2081608;28;4201;-72
2021/09/06 00:48:01;;;;;;;;;;;;;;;;;;2083225;28;2466;-72
2021/09/06 00:49:01;;;;;;;;;;;;;;;;;;2082647;28;4117;-72
2021/09/06 00:50:06;;;;;;;;;;;;;;;;;;2082280;28;3020;-72
2021/09/06 00:51:07;;;;;;;;;;;;;;;;;;2082022;28;1022;-72
2021/09/06 00:52:07;;;;;;;;;;;;;;;;;;2081856;28;3924;-72
2021/09/06 00:53:08;;;;;;;;;;;;;;;;;;2080044;28;4060;-72
2021/09/06 00:54:08;;;;;;;;;;;;;;;;;;2084235;28;2465;-72
2021/09/06 00:55:09;;;;;;;;;;;;;;;;;;2080556;28;2827;-72
2021/09/06 00:56:10;;;;;;;;;;;;;;;;;;2082516;28;2620;-72
2021/09/06 00:57:11;;;;;;;;;;;;;;;;;;2084016;28;2576;-72
2021/09/06 00:58:12;;;;;;;;;;;;;;;;;;2083833;28;1113;-72
2021/09/06 00:59:12;;;;;;;;;;;;;;;;;;2083624;28;4182;-72
2021/09/06 01:00:13;;;;;;;;;;;;;;;;;;2082970;28;2636;-72
2021/09/06 01:01:14;;;;;;;;;;;;;;;;;;2082989;28;2065;-72
2021/09/06 01:02:14;;;;;;;;;;;;;;;;;;2083608;28;3893;-72
2021/09/06 01:03:15;;;;;;;;;;;;;;;;;;2083028;28;3740;-72
2021/09/06 01:04:15;;;;;;;;;;;;;;;;;;2084120;28;1077;-72
2021/09/06 01:05:17;;;;;;;;;;;;;;;;;;2082015;28;3506;-72
2021/09/06 01:06:17;;;;;;;;;;;;;;;;;;2081223;28;4262;-72
2021/09/06 01:07:20;;;;;;;;;;;;;;;;;;2084472;28;1654;-72
2021/09/06 01:08:20;;;;;;;;;;;;;;;;;;2084144;28;3059;-72
2021/09/06 01:09:23;;;;;;;;;;;;;;;;;;2084083;28;2462;-72
2021/09/06 01:10:23;;;;;;;;;;;;;;;;;;2083788;28;1026;-72
2021/09/06 01:11:24;;;;;;;;;;;;;;;;;;2084682;28;2224;-72
2021/09/06 01:12:24;;;;;;;;;;;;;;;;;;2084242;28;2080;-72
2021/09/06 01:13:26;;;;;;;;;;;;;;;;;;2084134;28;2160;-72
2021/09/06 01:14:26;;;;;;;;;;;;;;;;;;2083436;28;4155;-72
2021/09/06 01:15:27;;;;;;;;;;;;;;;;;;2083097;28;3500;-72
2021/09/06 01:16:27;;;;;;;;;;;;;;;;;;2084444;28;2437;-72
2021/09/06 01:17:28;;;;;;;;;;;;;;;;;;2085076;28;2143;-72
2021/09/06 01:18:29;;;;;;;;;;;;;;;;;;2085170;28;1377;-72
2021/09/06 01:19:29;;;;;;;;;;;;;;;;;;2084105;28;3054;-72
2021/09/06 01:20:30;;;;;;;;;;;;;;;;;;2079671;28;1563;-72
2021/09/06 01:21:30;;;;;;;;;;;;;;;;;;2084279;28;1104;-72
2021/09/06 01:22:31;;;;;;;;;;;;;;;;;;2085288;28;2742;-72
2021/09/06 01:23:31;;;;;;;;;;;;;;;;;;2084244;28;2020;-72
2021/09/06 01:24:33;;;;;;;;;;;;;;;;;;2085691;28;2702;-72
2021/09/06 01:25:33;;;;;;;;;;;;;;;;;;2084382;28;2968;-72
2021/09/06 01:26:34;;;;;;;;;;;;;;;;;;2084813;28;1048;-72
2021/09/06 01:27:34;;;;;;;;;;;;;;;;;;2085777;28;1943;-72
2021/09/06 01:28:35;;;;;;;;;;;;;;;;;;2085958;28;2593;-72
2021/09/06 01:29:35;;;;;;;;;;;;;;;;;;2084931;28;2721;-72
2021/09/06 01:30:37;;;;;;;;;;;;;;;;;;2085781;28;3625;-72
2021/09/06 01:31:37;;;;;;;;;;;;;;;;;;2082374;28;4291;-72
2021/09/06 01:32:39;;;;;;;;;;;;;;;;;;2084907;28;3719;-72
2021/09/06 01:33:39;;;;;;;;;;;;;;;;;;2079626;28;4067;-72
2021/09/06 01:34:40;;;;;;;;;;;;;;;;;;2083914;28;3662;-72
2021/09/06 01:35:40;;;;;;;;;;;;;;;;;;2085710;28;2197;-72
2021/09/06 01:36:41;;;;;;;;;;;;;;;;;;2083880;28;1780;-72
2021/09/06 01:37:41;;;;;;;;;;;;;;;;;;2083884;28;3513;-72
2021/09/06 01:38:42;;;;;;;;;;;;;;;;;;2086172;28;1065;-72
2021/09/06 01:39:42;;;;;;;;;;;;;;;;;;2081996;28;4793;-72
2021/09/06 01:40:43;;;;;;;;;;;;;;;;;;2085355;28;3604;-72
2021/09/06 01:41:43;;;;;;;;;;;;;;;;;;2085412;28;1147;-72
2021/09/06 01:42:44;;;;;;;;;;;;;;;;;;2083999;28;3187;-72
2021/09/06 01:43:45;;;;;;;;;;;;;;;;;;2085338;28;1795;-72
2021/09/06 01:44:46;;;;;;;;;;;;;;;;;;2085475;28;4179;-72
2021/09/06 01:45:46;;;;;;;;;;;;;;;;;;2084694;28;4038;-73
2021/09/06 01:46:47;;;;;;;;;;;;;;;;;;2085296;28;4145;-72
2021/09/06 01:47:47;;;;;;;;;;;;;;;;;;2086293;28;4360;-72
2021/09/06 01:48:49;;;;;;;;;;;;;;;;;;2086881;28;2445;-72
2021/09/06 01:49:49;;;;;;;;;;;;;;;;;;2085671;28;2643;-72
2021/09/06 01:50:51;;;;;;;;;;;;;;;;;;2083056;28;4808;-72
2021/09/06 01:51:51;;;;;;;;;;;;;;;;;;2087172;28;3063;-72
2021/09/06 01:52:52;;;;;;;;;;;;;;;;;;2087369;28;2497;-72
2021/09/06 01:53:52;;;;;;;;;;;;;;;;;;2084257;28;3551;-72
2021/09/06 01:54:53;;;;;;;;;;;;;;;;;;2086315;28;3111;-72
2021/09/06 01:55:53;;;;;;;;;;;;;;;;;;2087271;28;1017;-72
2021/09/06 01:56:54;;;;;;;;;;;;;;;;;;2087670;28;2347;-72
2021/09/06 01:57:54;;;;;;;;;;;;;;;;;;2087942;28;2039;-72
2021/09/06 01:58:55;;;;;;;;;;;;;;;;;;2088579;28;1668;-72
2021/09/06 01:59:55;;;;;;;;;;;;;;;;;;2086825;28;1483;-72
2021/09/06 02:00:57;;;;;;;;;;;;;;;;;;2087783;28;2411;-72
2021/09/06 02:01:57;;;;;;;;;;;;;;;;;;2087138;28;2262;-72
2021/09/06 02:02:58;;;;;;;;;;;;;;;;;;2087653;28;2826;-72
2021/09/06 02:03:58;;;;;;;;;;;;;;;;;;2086904;28;2024;-72
2021/09/06 02:04:59;;;;;;;;;;;;;;;;;;2086991;28;2192;-72
2021/09/06 02:05:59;;;;;;;;;;;;;;;;;;2088236;28;4182;-72
2021/09/06 02:07:00;;;;;;;;;;;;;;;;;;2084216;28;1732;-72
2021/09/06 02:08:00;;;;;;;;;;;;;;;;;;2081202;28;3893;-72
2021/09/06 02:09:01;;;;;;;;;;;;;;;;;;2081176;28;4004;-72
2021/09/06 02:10:06;;;;;;;;;;;;;;;;;;2078220;28;1918;-72
2021/09/06 02:11:06;;;;;;;;;;;;;;;;;;2078188;28;4692;-72
2021/09/06 02:12:07;;;;;;;;;;;;;;;;;;2082610;28;3335;-72
2021/09/06 02:13:08;;;;;;;;;;;;;;;;;;2082800;28;2386;-72
2021/09/06 02:14:09;;;;;;;;;;;;;;;;;;2081719;28;2450;-72
2021/09/06 02:15:10;;;;;;;;;;;;;;;;;;2081690;28;3025;-72
2021/09/06 02:16:11;;;;;;;;;;;;;;;;;;2082055;28;3327;-72
2021/09/06 02:17:11;;;;;;;;;;;;;;;;;;2082508;28;2337;-72
2021/09/06 02:18:12;;;;;;;;;;;;;;;;;;2083450;28;2170;-72
2021/09/06 02:19:12;;;;;;;;;;;;;;;;;;2082786;28;1076;-72
2021/09/06 02:20:15;;;;;;;;;;;;;;;;;;2083911;28;1011;-72
2021/09/06 02:21:15;;;;;;;;;;;;;;;;;;2082762;28;1660;-72
2021/09/06 02:22:18;;;;;;;;;;;;;;;;;;2082138;28;1207;-72
2021/09/06 02:23:18;;;;;;;;;;;;;;;;;;2081765;28;1117;-72
2021/09/06 02:24:19;;;;;;;;;;;;;;;;;;2081298;28;2307;-72
2021/09/06 02:25:19;;;;;;;;;;;;;;;;;;2079903;28;3951;-72
2021/09/06 02:26:20;;;;;;;;;;;;;;;;;;2081221;28;3326;-72
2021/09/06 02:27:20;;;;;;;;;;;;;;;;;;2082418;28;3631;-72
2021/09/06 02:28:21;;;;;;;;;;;;;;;;;;2083936;28;1037;-72
2021/09/06 02:29:22;;;;;;;;;;;;;;;;;;2083929;28;2068;-72
2021/09/06 02:30:24;;;;;;;;;;;;;;;;;;2084555;28;2750;-72
2021/09/06 02:31:24;;;;;;;;;;;;;;;;;;2083570;28;1147;-72
2021/09/06 02:32:25;;;;;;;;;;;;;;;;;;2083554;28;2044;-72
2021/09/06 02:33:25;;;;;;;;;;;;;;;;;;2082641;28;2084;-72
2021/09/06 02:34:26;;;;;;;;;;;;;;;;;;2083177;28;2354;-72
2021/09/06 02:35:26;;;;;;;;;;;;;;;;;;2081029;28;3049;-72
2021/09/06 02:36:27;;;;;;;;;;;;;;;;;;2081902;28;3595;-72
2021/09/06 02:37:28;;;;;;;;;;;;;;;;;;2083909;28;2543;-72
2021/09/06 02:38:29;;;;;;;;;;;;;;;;;;2081689;28;1065;-72
2021/09/06 02:39:29;;;;;;;;;;;;;;;;;;2084839;28;1215;-72
2021/09/06 02:40:30;;;;;;;;;;;;;;;;;;2084336;28;2343;-72
2021/09/06 02:41:30;;;;;;;;;;;;;;;;;;2081563;28;4237;-72
2021/09/06 02:42:31;;;;;;;;;;;;;;;;;;2084760;28;1061;-72
2021/09/06 02:43:31;;;;;;;;;;;;;;;;;;2083352;28;3412;-72
2021/09/06 02:44:32;;;;;;;;;;;;;;;;;;2081856;28;5022;-72
2021/09/06 02:45:32;;;;;;;;;;;;;;;;;;2078779;28;3711;-72
2021/09/06 02:46:33;;;;;;;;;;;;;;;;;;2082753;28;2746;-72
2021/09/06 02:47:34;;;;;;;;;;;;;;;;;;2083821;28;3865;-72
2021/09/06 02:48:35;;;;;;;;;;;;;;;;;;2083833;28;3091;-72
2021/09/06 02:49:35;;;;;;;;;;;;;;;;;;2085364;28;1942;-72
2021/09/06 02:50:36;;;;;;;;;;;;;;;;;;2085317;28;1071;-72
2021/09/06 02:51:39;;;;;;;;;;;;;;;;;;2084756;28;2677;-72
2021/09/06 02:52:40;;;;;;;;;;;;;;;;;;2085554;28;1087;-72
2021/09/06 02:53:41;;;;;;;;;;;;;;;;;;2083353;28;2746;-72
2021/09/06 02:54:41;;;;;;;;;;;;;;;;;;2085253;28;2686;-72
2021/09/06 02:55:43;;;;;;;;;;;;;;;;;;2084787;28;2906;-72
2021/09/06 02:56:43;;;;;;;;;;;;;;;;;;2084092;28;2854;-72
2021/09/06 02:57:44;;;;;;;;;;;;;;;;;;2085886;28;3831;-72
2021/09/06 02:58:44;;;;;;;;;;;;;;;;;;2084816;28;4038;-72
2021/09/06 02:59:45;;;;;;;;;;;;;;;;;;2086308;28;2286;-72
2021/09/06 03:00:45;;;;;;;;;;;;;;;;;;2083367;28;2602;-72
2021/09/06 03:01:46;;;;;;;;;;;;;;;;;;2084638;28;2749;-72
2021/09/06 03:02:46;;;;;;;;;;;;;;;;;;2085389;28;2162;-72
2021/09/06 03:03:47;;;;;;;;;;;;;;;;;;2084895;28;2671;-72
2021/09/06 03:04:47;;;;;;;;;;;;;;;;;;2085497;28;2072;-72
2021/09/06 03:05:49;;;;;;;;;;;;;;;;;;2085448;28;3017;-72
2021/09/06 03:06:49;;;;;;;;;;;;;;;;;;2084143;28;2201;-72
2021/09/06 03:07:50;;;;;;;;;;;;;;;;;;2079995;28;2385;-72
2021/09/06 03:08:50;;;;;;;;;;;;;;;;;;2086469;28;1331;-72
2021/09/06 03:09:51;;;;;;;;;;;;;;;;;;2087263;28;1906;-72
2021/09/06 03:10:51;;;;;;;;;;;;;;;;;;2085370;28;3461;-72
2021/09/06 03:11:52;;;;;;;;;;;;;;;;;;2087302;28;2339;-72
2021/09/06 03:12:58;;;;;;;;;;;;;;;;;;2087600;28;1663;-72
2021/09/06 03:13:59;;;;;;;;;;;;;;;;;;2086676;28;2055;-72
2021/09/06 03:15:00;;;;;;;;;;;;;;;;;;2085641;28;2414;-72
2021/09/06 03:16:01;;;;;;;;;;;;;;;;;;2087239;28;1869;-72
2021/09/06 03:17:01;;;;;;;;;;;;;;;;;;2087272;28;1992;-72
2021/09/06 03:18:02;;;;;;;;;;;;;;;;;;2088465;28;1049;-72
2021/09/06 03:19:02;;;;;;;;;;;;;;;;;;2086725;28;1897;-72
2021/09/06 03:20:03;;;;;;;;;;;;;;;;;;2086675;28;2178;-72
2021/09/06 03:21:03;;;;;;;;;;;;;;;;;;2081557;28;1979;-72
2021/09/06 03:22:04;;;;;;;;;;;;;;;;;;2081488;28;2563;-72
2021/09/06 03:23:05;;;;;;;;;;;;;;;;;;2081828;28;4020;-72
2021/09/06 03:24:06;;;;;;;;;;;;;;;;;;2080705;28;2664;-72
2021/09/06 03:25:06;;;;;;;;;;;;;;;;;;2082374;28;2620;-72
2021/09/06 03:26:07;;;;;;;;;;;;;;;;;;2081089;28;2553;-72
2021/09/06 03:27:07;;;;;;;;;;;;;;;;;;2080771;28;4482;-72
2021/09/06 03:28:08;;;;;;;;;;;;;;;;;;2082125;28;3730;-72
2021/09/06 03:29:08;;;;;;;;;;;;;;;;;;2081749;28;1101;-72
2021/09/06 03:30:09;;;;;;;;;;;;;;;;;;2081634;28;2225;-72
2021/09/06 03:31:09;;;;;;;;;;;;;;;;;;2081243;28;1113;-72
2021/09/06 03:32:11;;;;;;;;;;;;;;;;;;2081678;28;1218;-72
2021/09/06 03:33:14;;;;;;;;;;;;;;;;;;2080224;28;2649;-72
2021/09/06 03:34:15;;;;;;;;;;;;;;;;;;2083428;28;4100;-72
2021/09/06 03:35:17;;;;;;;;;;;;;;;;;;2080620;28;2373;-72
2021/09/06 03:36:20;;;;;;;;;;;;;;;;;;2081865;28;1951;-72
2021/09/06 03:37:20;;;;;;;;;;;;;;;;;;2082424;28;3773;-72
2021/09/06 03:38:21;;;;;;;;;;;;;;;;;;2081364;28;2005;-72
2021/09/06 03:39:21;;;;;;;;;;;;;;;;;;2082927;28;2138;-72
2021/09/06 03:40:22;;;;;;;;;;;;;;;;;;2082645;28;1554;-72
2021/09/06 03:42:40;;;;;;;;;;;;;;;;;;2121657;27;1701;-71
2021/09/06 03:43:40;;;;;;;;;;;;;;;;;;2118442;27;2297;-71
2021/09/06 03:44:41;;;;;;;;;;;;;;;;;;2116754;27;2768;-71
2021/09/06 03:45:41;;;;;;;;;;;;;;;;;;2110531;28;3759;-71
2021/09/06 03:46:45;;;;;;;;;;;;;;;;;;2110280;28;2152;-71
2021/09/06 03:47:45;;;;;;;;;;;;;;;;;;2110802;28;3367;-71
2021/09/06 03:48:46;;;;;;;;;;;;;;;;;;2111749;28;2193;-71
2021/09/06 03:49:46;;;;;;;;;;;;;;;;;;2111685;28;1100;-71
2021/09/06 03:50:47;;;;;;;;;;;;;;;;;;2109805;28;4020;-71
2021/09/06 03:51:48;;;;;;;;;;;;;;;;;;2110657;28;2074;-71
2021/09/06 03:52:49;;;;;;;;;;;;;;;;;;2110338;28;3581;-71
2021/09/06 03:53:50;;;;;;;;;;;;;;;;;;2110237;28;2302;-71
2021/09/06 03:54:50;;;;;;;;;;;;;;;;;;2109906;27;2378;-71
2021/09/06 03:55:51;;;;;;;;;;;;;;;;;;2110796;28;4235;-71
2021/09/06 03:56:51;;;;;;;;;;;;;;;;;;2111089;28;1884;-71
2021/09/06 03:57:54;;;;;;;;;;;;;;;;;;2111605;27;1914;-71
2021/09/06 03:58:54;;;;;;;;;;;;;;;;;;2112140;28;949;-71
2021/09/06 03:59:55;;;;;;;;;;;;;;;;;;2110712;28;1827;-71
2021/09/06 04:00:56;;;;;;;;;;;;;;;;;;2110702;28;2662;-71
2021/09/06 04:01:57;;;;;;;;;;;;;;;;;;2111399;28;1905;-71
2021/09/06 04:02:57;;;;;;;;;;;;;;;;;;2110211;28;3537;-71
2021/09/06 04:03:58;;;;;;;;;;;;;;;;;;2109189;27;4043;-71
2021/09/06 04:04:59;;;;;;;;;;;;;;;;;;2109087;27;3623;-72
2021/09/06 04:06:01;;;;;;;;;;;;;;;;;;2112191;28;1356;-71
2021/09/06 04:07:01;;;;;;;;;;;;;;;;;;2110846;28;2332;-71
2021/09/06 04:08:02;;;;;;;;;;;;;;;;;;2111476;28;2595;-71
2021/09/06 04:09:03;;;;;;;;;;;;;;;;;;2111230;28;2012;-71
2021/09/06 04:10:07;;;;;;;;;;;;;;;;;;2108052;27;1284;-71
2021/09/06 04:11:07;;;;;;;;;;;;;;;;;;2109995;28;1722;-71
2021/09/06 04:12:10;;;;;;;;;;;;;;;;;;2109268;28;1975;-71
2021/09/06 04:13:10;;;;;;;;;;;;;;;;;;2110650;28;2409;-71
2021/09/06 04:14:15;;;;;;;;;;;;;;;;;;2111477;28;2113;-71
2021/09/06 04:15:15;;;;;;;;;;;;;;;;;;2109638;27;3896;-71
2021/09/06 04:16:16;;;;;;;;;;;;;;;;;;2109746;28;3924;-71
2021/09/06 04:17:16;;;;;;;;;;;;;;;;;;2111811;28;2042;-71
2021/09/06 04:18:19;;;;;;;;;;;;;;;;;;2112006;27;1189;-71
2021/09/06 04:19:19;;;;;;;;;;;;;;;;;;2112516;28;2295;-71
2021/09/06 04:20:20;;;;;;;;;;;;;;;;;;2109628;28;3940;-71
2021/09/06 04:21:20;;;;;;;;;;;;;;;;;;2111277;28;1606;-71
2021/09/06 04:22:21;;;;;;;;;;;;;;;;;;2109568;28;2504;-71
2021/09/06 04:23:22;;;;;;;;;;;;;;;;;;2108631;28;2393;-71
2021/09/06 04:24:23;;;;;;;;;;;;;;;;;;2111101;28;2322;-71
2021/09/06 04:25:23;;;;;;;;;;;;;;;;;;2109200;28;2181;-71
2021/09/06 04:26:25;;;;;;;;;;;;;;;;;;2108047;28;3102;-71
2021/09/06 04:27:25;;;;;;;;;;;;;;;;;;2110606;28;2557;-71
2021/09/06 04:28:26;;;;;;;;;;;;;;;;;;2110529;28;2783;-71
2021/09/06 04:29:26;;;;;;;;;;;;;;;;;;2110204;28;2762;-71
2021/09/06 04:30:27;;;;;;;;;;;;;;;;;;2111497;28;1078;-71
2021/09/06 04:31:30;;;;;;;;;;;;;;;;;;2110570;28;1750;-71
2021/09/06 04:32:31;;;;;;;;;;;;;;;;;;2111135;27;2796;-71
2021/09/06 04:33:31;;;;;;;;;;;;;;;;;;2108789;27;3450;-71
2021/09/06 04:34:32;;;;;;;;;;;;;;;;;;2108688;27;2235;-71
2021/09/06 04:35:33;;;;;;;;;;;;;;;;;;2109022;27;3734;-71
2021/09/06 04:36:34;;;;;;;;;;;;;;;;;;2110560;28;1193;-71
2021/09/06 04:37:34;;;;;;;;;;;;;;;;;;2108498;28;3614;-71
2021/09/06 04:38:35;;;;;;;;;;;;;;;;;;2110973;28;2279;-71
2021/09/06 04:39:35;;;;;;;;;;;;;;;;;;2111152;28;3084;-71
2021/09/06 04:40:36;;;;;;;;;;;;;;;;;;2110704;28;1699;-71
2021/09/06 04:41:36;;;;;;;;;;;;;;;;;;2109998;28;2016;-71
2021/09/06 04:42:37;;;;;;;;;;;;;;;;;;2110393;28;1908;-71
2021/09/06 04:43:37;;;;;;;;;;;;;;;;;;2109348;28;4237;-71
2021/09/06 04:44:38;;;;;;;;;;;;;;;;;;2109977;27;2797;-71
2021/09/06 04:45:39;;;;;;;;;;;;;;;;;;2108654;28;4172;-71
2021/09/06 04:46:40;;;;;;;;;;;;;;;;;;2108663;28;4053;-71
2021/09/06 04:47:40;;;;;;;;;;;;;;;;;;2110998;28;2275;-71
2021/09/06 04:48:41;;;;;;;;;;;;;;;;;;2111935;28;972;-71
2021/09/06 04:49:41;;;;;;;;;;;;;;;;;;2110843;28;1058;-71
2021/09/06 04:50:42;;;;;;;;;;;;;;;;;;2109051;27;2673;-71
2021/09/06 04:51:42;;;;;;;;;;;;;;;;;;2111342;28;1343;-71
2021/09/06 04:52:43;;;;;;;;;;;;;;;;;;2111215;27;1649;-71
2021/09/06 04:53:46;;;;;;;;;;;;;;;;;;2103967;28;4050;-71
2021/09/06 04:54:46;;;;;;;;;;;;;;;;;;2106126;28;2256;-71
2021/09/06 04:55:47;;;;;;;;;;;;;;;;;;2105010;28;3199;-71
2021/09/06 04:56:48;;;;;;;;;;;;;;;;;;2104735;28;2066;-71
2021/09/06 04:57:48;;;;;;;;;;;;;;;;;;2105376;28;2464;-71
2021/09/06 04:58:50;;;;;;;;;;;;;;;;;;2106603;28;1481;-71
2021/09/06 04:59:50;;;;;;;;;;;;;;;;;;2104959;28;1482;-71
2021/09/06 05:00:51;;;;;;;;;;;;;;;;;;2102715;28;2489;-71
2021/09/06 05:01:51;;;;;;;;;;;;;;;;;;2098669;28;4747;-71
2021/09/06 05:02:52;;;;;;;;;;;;;;;;;;2104247;28;4028;-71
2021/09/06 05:03:56;;;;;;;;;;;;;;;;;;2101210;28;3539;-71
2021/09/06 05:04:56;;;;;;;;;;;;;;;;;;2103638;28;3401;-71
2021/09/06 05:05:58;;;;;;;;;;;;;;;;;;2102410;28;4100;-71
2021/09/06 05:06:58;;;;;;;;;;;;;;;;;;2103435;28;4059;-71
2021/09/06 05:07:59;;;;;;;;;;;;;;;;;;2104868;28;4233;-71
2021/09/06 05:09:01;;;;;;;;;;;;;;;;;;2102772;28;4566;-71
2021/09/06 05:10:01;;;;;;;;;;;;;;;;;;2104989;28;3975;-71
2021/09/06 05:11:02;;;;;;;;;;;;;;;;;;2103594;28;3976;-71
2021/09/06 05:12:02;;;;;;;;;;;;;;;;;;2104375;28;1682;-71
2021/09/06 05:13:03;;;;;;;;;;;;;;;;;;2103985;28;3794;-71
2021/09/06 05:14:03;;;;;;;;;;;;;;;;;;2102986;28;3805;-71
2021/09/06 05:15:05;;;;;;;;;;;;;;;;;;2101404;28;4004;-71
2021/09/06 05:16:05;;;;;;;;;;;;;;;;;;2104607;28;4220;-71
2021/09/06 05:17:06;;;;;;;;;;;;;;;;;;2104627;28;4236;-71
2021/09/06 05:18:06;;;;;;;;;;;;;;;;;;2104355;28;4204;-71
2021/09/06 05:19:07;;;;;;;;;;;;;;;;;;2096429;28;3426;-71
2021/09/06 05:20:07;;;;;;;;;;;;;;;;;;2103880;28;4228;-71
2021/09/06 05:21:08;;;;;;;;;;;;;;;;;;2103447;28;3131;-71
2021/09/06 05:22:09;;;;;;;;;;;;;;;;;;2104705;28;4204;-71
2021/09/06 05:23:10;;;;;;;;;;;;;;;;;;2104717;28;1780;-71
2021/09/06 05:24:10;;;;;;;;;;;;;;;;;;2105107;28;2559;-71
2021/09/06 05:25:11;;;;;;;;;;;;;;;;;;2104521;28;3648;-71
2021/09/06 05:26:12;;;;;;;;;;;;;;;;;;2103552;28;4458;-71
2021/09/06 05:27:12;;;;;;;;;;;;;;;;;;2105662;28;3958;-71
2021/09/06 05:28:13;;;;;;;;;;;;;;;;;;2104888;28;4021;-71
2021/09/06 05:29:13;;;;;;;;;;;;;;;;;;2105627;28;1458;-71
2021/09/06 05:30:14;;;;;;;;;;;;;;;;;;2105382;28;1529;-71
2021/09/06 05:31:15;;;;;;;;;;;;;;;;;;2105052;28;2570;-70
2021/09/06 05:32:15;;;;;;;;;;;;;;;;;;2105471;28;3211;-71
2021/09/06 05:33:17;;;;;;;;;;;;;;;;;;2102869;28;4338;-71
2021/09/06 05:34:18;;;;;;;;;;;;;;;;;;2102841;28;4294;-71
2021/09/06 05:35:19;;;;;;;;;;;;;;;;;;2099530;27;2940;-71
2021/09/06 05:36:19;;;;;;;;;;;;;;;;;;2103038;28;3531;-71
2021/09/06 05:37:20;;;;;;;;;;;;;;;;;;2104609;28;2411;-71
2021/09/06 05:38:20;;;;;;;;;;;;;;;;;;2104114;28;1772;-71
2021/09/06 05:39:21;;;;;;;;;;;;;;;;;;2105087;28;2697;-71
2021/09/06 05:40:21;;;;;;;;;;;;;;;;;;2103385;28;1667;-71
2021/09/06 05:41:25;;;;;;;;;;;;;;;;;;2103550;28;3427;-71
2021/09/06 05:42:25;;;;;;;;;;;;;;;;;;2105120;28;1977;-71
2021/09/06 05:43:26;;;;;;;;;;;;;;;;;;2104588;27;3476;-71
2021/09/06 05:44:26;;;;;;;;;;;;;;;;;;2104675;28;1206;-71
2021/09/06 05:45:27;;;;;;;;;;;;;;;;;;2102535;28;4056;-71
2021/09/06 05:46:27;;;;;;;;;;;;;;;;;;2103410;28;3053;-71
2021/09/06 05:47:28;;;;;;;;;;;;;;;;;;2104983;28;1644;-71
2021/09/06 05:48:28;;;;;;;;;;;;;;;;;;2105203;28;2988;-71
2021/09/06 05:49:29;;;;;;;;;;;;;;;;;;2103678;28;3609;-71
2021/09/06 05:50:30;;;;;;;;;;;;;;;;;;2105259;28;1563;-71
2021/09/06 05:51:31;;;;;;;;;;;;;;;;;;2104251;28;2810;-71
2021/09/06 05:52:31;;;;;;;;;;;;;;;;;;2104589;28;4119;-71
2021/09/06 05:53:32;;;;;;;;;;;;;;;;;;2101868;28;1890;-71
2021/09/06 05:54:32;;;;;;;;;;;;;;;;;;2105978;28;1124;-71
2021/09/06 05:55:33;;;;;;;;;;;;;;;;;;2102339;28;3623;-71
2021/09/06 05:56:33;;;;;;;;;;;;;;;;;;2102639;28;4032;-71
2021/09/06 05:57:34;;;;;;;;;;;;;;;;;;2104523;28;3984;-71
2021/09/06 05:58:35;;;;;;;;;;;;;;;;;;2105117;28;2546;-71
2021/09/06 05:59:36;;;;;;;;;;;;;;;;;;2104840;28;1025;-71
2021/09/06 06:00:36;;;;;;;;;;;;;;;;;;2102928;28;2952;-71
2021/09/06 06:01:37;;;;;;;;;;;;;;;;;;2102156;28;4022;-71
2021/09/06 06:02:37;;;;;;;;;;;;;;;;;;2103811;28;2198;-71
2021/09/06 06:03:38;;;;;;;;;;;;;;;;;;2104308;28;3210;-71
2021/09/06 06:04:38;;;;;;;;;;;;;;;;;;2104937;28;1279;-71
2021/09/06 06:05:39;;;;;;;;;;;;;;;;;;2101673;28;3444;-71
2021/09/06 06:06:40;;;;;;;;;;;;;;;;;;2104823;28;2074;-71
2021/09/06 06:07:41;;;;;;;;;;;;;;;;;;2105760;28;1129;-71
2021/09/06 06:08:41;;;;;;;;;;;;;;;;;;2104893;28;1819;-71
2021/09/06 06:09:42;;;;;;;;;;;;;;;;;;2105843;28;1073;-71
2021/09/06 06:10:42;;;;;;;;;;;;;;;;;;2101213;28;2229;-71
2021/09/06 06:11:46;;;;;;;;;;;;;;;;;;2105386;28;1395;-71
2021/09/06 06:12:46;;;;;;;;;;;;;;;;;;2104975;28;1085;-71
2021/09/06 06:13:47;;;;;;;;;;;;;;;;;;2104664;28;1284;-71
2021/09/06 06:14:49;;;;;;;;;;;;;;;;;;2102978;28;2133;-71
2021/09/06 06:15:49;;;;;;;;;;;;;;;;;;2103373;28;4416;-71
2021/09/06 06:16:50;;;;;;;;;;;;;;;;;;2103478;28;3674;-71
2021/09/06 06:17:51;;;;;;;;;;;;;;;;;;2104724;28;2488;-71
2021/09/06 06:19:03;;;;;;;;;;;;;;;;;;2104151;28;2866;-71
2021/09/06 06:20:04;;;;;;;;;;;;;;;;;;2102701;28;4085;-71
2021/09/06 06:21:04;;;;;;;;;;;;;;;;;;2102822;28;4298;-71
2021/09/06 06:22:06;;;;;;;;;;;;;;;;;;2105856;28;1902;-71
2021/09/06 06:23:07;;;;;;;;;;;;;;;;;;2104462;28;1081;-71
2021/09/06 06:24:07;;;;;;;;;;;;;;;;;;2103870;28;1865;-71
2021/09/06 06:25:09;;;;;;;;;;;;;;;;;;2103457;28;2667;-71
2021/09/06 06:26:09;;;;;;;;;;;;;;;;;;2103970;28;3510;-71
2021/09/06 06:27:10;;;;;;;;;;;;;;;;;;2105298;28;4322;-71
2021/09/06 06:28:10;;;;;;;;;;;;;;;;;;2105394;28;1239;-71
2021/09/06 06:29:11;;;;;;;;;;;;;;;;;;2104340;28;3860;-71
2021/09/06 06:30:11;;;;;;;;;;;;;;;;;;2103673;28;3812;-71
2021/09/06 06:31:12;;;;;;;;;;;;;;;;;;2103439;28;3693;-71
2021/09/06 06:32:12;;;;;;;;;;;;;;;;;;2104573;28;1104;-71
2021/09/06 06:33:13;;;;;;;;;;;;;;;;;;2100385;28;3126;-71
2021/09/06 06:34:14;;;;;;;;;;;;;;;;;;2104435;28;2115;-71
2021/09/06 06:35:15;;;;;;;;;;;;;;;;;;2102903;27;2286;-71
2021/09/06 06:36:15;;;;;;;;;;;;;;;;;;2103918;28;1500;-71
2021/09/06 06:37:16;;;;;;;;;;;;;;;;;;2103605;28;3835;-71
2021/09/06 06:38:16;;;;;;;;;;;;;;;;;;2105164;28;2237;-71
2021/09/06 06:39:18;;;;;;;;;;;;;;;;;;2102915;28;3789;-71
2021/09/06 06:40:18;;;;;;;;;;;;;;;;;;2104574;28;3806;-71
2021/09/06 06:41:19;;;;;;;;;;;;;;;;;;2103976;28;1226;-71
2021/09/06 06:42:20;;;;;;;;;;;;;;;;;;2105611;28;1878;-71
2021/09/06 06:43:20;;;;;;;;;;;;;;;;;;2099937;28;3968;-71
2021/09/06 06:44:21;;;;;;;;;;;;;;;;;;2101432;28;5334;-71
2021/09/06 06:45:21;;;;;;;;;;;;;;;;;;2102542;28;4720;-71
2021/09/06 06:46:22;;;;;;;;;;;;;;;;;;2103846;28;3689;-71
2021/09/06 06:47:23;;;;;;;;;;;;;;;;;;2103724;28;4254;-70
2021/09/06 06:48:24;;;;;;;;;;;;;;;;;;2104848;28;3943;-71
2021/09/06 06:49:25;;;;;;;;;;;;;;;;;;2104640;28;5237;-71
2021/09/06 06:50:25;;;;;;;;;;;;;;;;;;2103565;28;4125;-71
2021/09/06 06:51:26;;;;;;;;;;;;;;;;;;2103086;28;3803;-71
2021/09/06 06:52:27;;;;;;;;;;;;;;;;;;2104564;28;4253;-71
2021/09/06 06:53:28;;;;;;;;;;;;;;;;;;2104285;28;1064;-71
2021/09/06 06:54:29;;;;;;;;;;;;;;;;;;2104768;28;1117;-71
2021/09/06 06:55:30;;;;;;;;;;;;;;;;;;2102560;28;4150;-71
2021/09/06 06:56:31;;;;;;;;;;;;;;;;;;2104223;28;1173;-71
2021/09/06 06:57:32;;;;;;;;;;;;;;;;;;2105099;28;1153;-71
2021/09/06 06:58:33;;;;;;;;;;;;;;;;;;2101770;28;3790;-71
2021/09/06 06:59:33;;;;;;;;;;;;;;;;;;2100774;28;4190;-71
2021/09/06 07:00:34;;;;;;;;;;;;;;;;;;2095789;28;4188;-71
2021/09/06 07:01:34;;;;;;;;;;;;;;;;;;2098969;28;2586;-71
2021/09/06 07:02:35;;;;;;;;;;;;;;;;;;2103166;28;2952;-71
2021/09/06 07:03:35;;;;;;;;;;;;;;;;;;2100556;28;4267;-71